createdAt,value
2019-06-27T00:00:10.099Z,31.12
2019-06-27T00:01:10.085Z,31.12
2019-06-27T00:02:10.066Z,31.10
2019-06-27T00:03:10.051Z,31.07
2019-06-27T00:04:10.041Z,31.07
2019-06-27T00:05:10.092Z,31.07
2019-06-27T00:06:10.048Z,31.04
2019-06-27T00:07:10.051Z,31.07
2019-06-27T00:08:10.029Z,31.01
2019-06-27T00:09:09.976Z,31.01
2019-06-27T00:10:09.991Z,30.96
2019-06-27T00:11:09.975Z,31.01
2019-06-27T00:12:09.980Z,31.10
2019-06-27T00:13:09.983Z,31.01
2019-06-27T00:14:09.946Z,31.04
2019-06-27T00:15:09.932Z,31.00
2019-06-27T00:16:09.902Z,30.98
2019-06-27T00:17:09.945Z,30.94
2019-06-27T00:18:09.934Z,30.97
2019-06-27T00:19:09.900Z,31.07
2019-06-27T00:20:09.871Z,31.01
2019-06-27T00:21:09.851Z,31.00
2019-06-27T00:22:09.868Z,30.96
2019-06-27T00:23:09.871Z,30.96
2019-06-27T00:24:09.869Z,30.97
2019-06-27T00:25:09.856Z,31.00
2019-06-27T00:26:09.826Z,30.94
2019-06-27T00:27:09.823Z,30.91
2019-06-27T00:28:09.814Z,30.91
2019-06-27T00:29:09.884Z,30.90
2019-06-27T00:30:09.758Z,30.94
2019-06-27T00:31:09.785Z,30.90
2019-06-27T00:32:09.761Z,30.93
2019-06-27T00:33:09.772Z,30.93
2019-06-27T00:34:09.733Z,30.88
2019-06-27T00:35:09.732Z,30.93
2019-06-27T00:36:08.767Z,30.90
2019-06-27T00:37:09.709Z,30.83
2019-06-27T00:38:09.697Z,30.88
2019-06-27T00:39:09.673Z,30.90
2019-06-27T00:40:09.651Z,30.93
2019-06-27T00:41:09.676Z,30.88
2019-06-27T00:42:09.645Z,30.88
2019-06-27T00:43:09.649Z,30.78
2019-06-27T00:44:09.635Z,30.83
2019-06-27T00:45:09.610Z,30.79
2019-06-27T00:46:09.611Z,30.81
2019-06-27T00:47:09.656Z,30.81
2019-06-27T00:48:09.600Z,30.83
2019-06-27T00:49:09.597Z,30.81
2019-06-27T00:50:09.565Z,30.78
2019-06-27T00:51:10.137Z,30.78
2019-06-27T00:52:09.526Z,30.79
2019-06-27T00:53:09.542Z,30.76
2019-06-27T00:54:09.524Z,30.78
2019-06-27T00:55:09.506Z,30.75
2019-06-27T00:56:08.510Z,30.73
2019-06-27T00:57:14.170Z,30.67
2019-06-27T00:58:09.502Z,30.76
2019-06-27T00:59:09.471Z,30.70
2019-06-27T01:00:09.530Z,30.68
2019-06-27T01:01:09.434Z,30.76
2019-06-27T01:02:09.438Z,30.67
2019-06-27T01:03:09.437Z,30.67
2019-06-27T01:04:09.427Z,30.73
2019-06-27T01:05:09.392Z,30.70
2019-06-27T01:06:09.410Z,30.70
2019-06-27T01:07:09.409Z,30.67
2019-06-27T01:08:09.384Z,30.68
2019-06-27T01:09:09.390Z,30.67
2019-06-27T01:10:09.367Z,30.67
2019-06-27T01:11:09.331Z,30.63
2019-06-27T01:12:09.337Z,30.66
2019-06-27T01:13:09.318Z,30.64
2019-06-27T01:14:09.329Z,30.67
2019-06-27T01:15:09.307Z,30.72
2019-06-27T01:16:08.274Z,30.73
2019-06-27T01:17:08.267Z,30.57
2019-06-27T01:18:09.259Z,30.66
2019-06-27T01:19:09.263Z,30.60
2019-06-27T01:20:09.264Z,30.66
2019-06-27T01:21:09.236Z,30.64
2019-06-27T01:22:09.215Z,30.56
2019-06-27T01:23:09.199Z,30.61
2019-06-27T01:24:09.219Z,30.63
2019-06-27T01:25:09.193Z,30.66
2019-06-27T01:26:09.213Z,30.63
2019-06-27T01:27:09.204Z,30.67
2019-06-27T01:28:09.152Z,30.67
2019-06-27T01:29:09.161Z,30.64
2019-06-27T01:30:09.135Z,30.57
2019-06-27T01:31:09.157Z,30.63
2019-06-27T01:32:09.132Z,30.64
2019-06-27T01:33:09.130Z,30.61
2019-06-27T01:34:09.103Z,30.56
2019-06-27T01:35:09.154Z,30.63
2019-06-27T01:36:09.082Z,30.48
2019-06-27T01:37:09.060Z,30.49
2019-06-27T01:38:09.079Z,30.53
2019-06-27T01:39:09.053Z,30.45
2019-06-27T01:40:09.049Z,30.56
2019-06-27T01:41:09.036Z,30.49
2019-06-27T01:42:09.033Z,30.46
2019-06-27T01:43:09.016Z,30.54
2019-06-27T01:44:09.048Z,30.49
2019-06-27T01:45:09.004Z,30.54
2019-06-27T01:46:08.998Z,30.53
2019-06-27T01:47:08.975Z,30.49
2019-06-27T01:48:08.942Z,30.53
2019-06-27T01:49:08.948Z,30.56
2019-06-27T01:50:09.507Z,30.38
2019-06-27T01:51:08.933Z,30.49
2019-06-27T01:52:08.906Z,30.38
2019-06-27T01:53:08.897Z,30.44
2019-06-27T01:54:08.914Z,30.32
2019-06-27T01:55:08.871Z,30.42
2019-06-27T01:56:08.878Z,30.37
2019-06-27T01:57:08.842Z,30.37
2019-06-27T01:58:08.855Z,30.29
2019-06-27T01:59:08.847Z,30.42
2019-06-27T02:00:08.850Z,30.38
2019-06-27T02:01:08.818Z,30.40
2019-06-27T02:02:08.857Z,30.44
2019-06-27T02:03:08.783Z,30.46
2019-06-27T02:04:08.794Z,30.26
2019-06-27T02:05:08.785Z,30.34
2019-06-27T02:06:08.752Z,30.29
2019-06-27T02:07:08.744Z,30.44
2019-06-27T02:08:08.730Z,30.44
2019-06-27T02:09:08.750Z,30.30
2019-06-27T02:10:08.708Z,30.29
2019-06-27T02:11:08.762Z,30.28
2019-06-27T02:12:08.716Z,30.37
2019-06-27T02:13:08.688Z,30.29
2019-06-27T02:14:08.671Z,30.32
2019-06-27T02:15:08.659Z,30.28
2019-06-27T02:16:08.660Z,30.34
2019-06-27T02:17:08.632Z,30.25
2019-06-27T02:18:08.638Z,30.22
2019-06-27T02:19:08.847Z,30.28
2019-06-27T02:20:08.642Z,30.29
2019-06-27T02:21:08.610Z,30.37
2019-06-27T02:22:08.615Z,30.28
2019-06-27T02:23:08.585Z,30.18
2019-06-27T02:24:08.645Z,30.23
2019-06-27T02:25:08.575Z,30.21
2019-06-27T02:26:08.543Z,30.23
2019-06-27T02:27:08.552Z,30.19
2019-06-27T02:28:08.526Z,30.22
2019-06-27T02:29:08.533Z,30.23
2019-06-27T02:30:08.524Z,30.26
2019-06-27T02:31:08.528Z,30.10
2019-06-27T02:32:08.495Z,30.16
2019-06-27T02:33:08.481Z,30.16
2019-06-27T02:34:08.505Z,30.06
2019-06-27T02:35:08.479Z,30.18
2019-06-27T02:36:08.450Z,30.13
2019-06-27T02:37:08.466Z,30.08
2019-06-27T02:38:08.433Z,30.10
2019-06-27T02:39:08.497Z,30.15
2019-06-27T02:40:08.418Z,30.15
2019-06-27T02:41:08.401Z,30.08
2019-06-27T02:42:08.382Z,30.11
2019-06-27T02:43:08.392Z,30.13
2019-06-27T02:44:08.348Z,30.10
2019-06-27T02:45:08.356Z,30.06
2019-06-27T02:46:08.384Z,30.13
2019-06-27T02:47:08.324Z,30.08
2019-06-27T02:48:08.360Z,30.08
2019-06-27T02:49:08.307Z,30.00
2019-06-27T02:50:08.315Z,29.97
2019-06-27T02:51:08.306Z,30.03
2019-06-27T02:52:08.298Z,29.94
2019-06-27T02:53:08.258Z,29.95
2019-06-27T02:54:08.254Z,30.07
2019-06-27T02:55:08.257Z,30.00
2019-06-27T02:56:08.270Z,29.99
2019-06-27T02:57:08.238Z,30.01
2019-06-27T02:58:28.821Z,29.92
2019-06-27T02:59:08.202Z,29.97
2019-06-27T03:00:08.197Z,29.99
2019-06-27T03:01:08.184Z,29.92
2019-06-27T03:02:08.202Z,29.94
2019-06-27T03:03:08.149Z,30.01
2019-06-27T03:04:08.152Z,29.92
2019-06-27T03:05:08.161Z,29.91
2019-06-27T03:06:08.142Z,29.94
2019-06-27T03:07:08.109Z,29.82
2019-06-27T03:08:08.125Z,29.81
2019-06-27T03:09:08.106Z,29.85
2019-06-27T03:10:08.092Z,29.79
2019-06-27T03:11:08.089Z,29.78
2019-06-27T03:12:08.088Z,29.82
2019-06-27T03:13:08.101Z,29.84
2019-06-27T03:14:08.036Z,29.92
2019-06-27T03:15:08.069Z,29.82
2019-06-27T03:16:08.014Z,29.84
2019-06-27T03:17:08.002Z,29.78
2019-06-27T03:18:07.996Z,29.76
2019-06-27T03:19:08.000Z,29.91
2019-06-27T03:20:07.999Z,29.92
2019-06-27T03:21:07.981Z,29.88
2019-06-27T03:22:07.949Z,29.89
2019-06-27T03:23:07.945Z,29.85
2019-06-27T03:24:07.969Z,29.84
2019-06-27T03:25:07.939Z,29.89
2019-06-27T03:26:07.962Z,29.78
2019-06-27T03:27:07.907Z,29.86
2019-06-27T03:28:07.913Z,29.79
2019-06-27T03:29:07.960Z,29.79
2019-06-27T03:30:07.888Z,29.71
2019-06-27T03:31:07.912Z,29.81
2019-06-27T03:32:07.845Z,29.71
2019-06-27T03:33:07.871Z,29.81
2019-06-27T03:34:07.835Z,29.74
2019-06-27T03:35:07.853Z,29.76
2019-06-27T03:36:07.821Z,29.74
2019-06-27T03:37:07.827Z,29.69
2019-06-27T03:38:07.802Z,29.76
2019-06-27T03:39:07.799Z,29.69
2019-06-27T03:40:07.802Z,29.76
2019-06-27T03:41:07.792Z,29.74
2019-06-27T03:42:07.749Z,29.71
2019-06-27T03:43:07.731Z,29.74
2019-06-27T03:44:07.753Z,29.74
2019-06-27T03:45:07.726Z,29.71
2019-06-27T03:46:07.726Z,29.71
2019-06-27T03:47:07.811Z,29.73
2019-06-27T03:48:07.675Z,29.71
2019-06-27T03:49:07.663Z,29.69
2019-06-27T03:50:07.763Z,29.64
2019-06-27T03:51:07.671Z,29.66
2019-06-27T03:52:07.636Z,29.58
2019-06-27T03:53:07.626Z,29.63
2019-06-27T03:54:07.646Z,29.63
2019-06-27T03:55:07.621Z,29.63
2019-06-27T03:56:07.617Z,29.60
2019-06-27T03:57:07.782Z,29.54
2019-06-27T03:58:07.591Z,29.58
2019-06-27T03:59:13.140Z,29.55
2019-06-27T04:00:09.954Z,29.57
2019-06-27T04:01:07.554Z,29.52
2019-06-27T04:02:07.544Z,29.51
2019-06-27T04:03:07.565Z,29.49
2019-06-27T04:04:07.511Z,29.52
2019-06-27T04:05:07.508Z,29.49
2019-06-27T04:06:07.510Z,29.48
2019-06-27T04:07:07.489Z,29.48
2019-06-27T04:08:07.475Z,29.47
2019-06-27T04:09:07.499Z,29.42
2019-06-27T04:10:07.481Z,29.41
2019-06-27T04:11:07.447Z,29.41
2019-06-27T04:12:07.449Z,29.42
2019-06-27T04:13:07.428Z,29.45
2019-06-27T04:14:07.442Z,29.48
2019-06-27T04:15:07.419Z,29.48
2019-06-27T04:16:07.401Z,29.44
2019-06-27T04:17:07.389Z,29.48
2019-06-27T04:18:07.389Z,29.44
2019-06-27T04:19:07.364Z,29.47
2019-06-27T04:20:07.400Z,29.47
2019-06-27T04:21:07.360Z,29.45
2019-06-27T04:22:07.331Z,29.33
2019-06-27T04:23:07.322Z,29.35
2019-06-27T04:24:07.307Z,29.36
2019-06-27T04:25:07.288Z,29.37
2019-06-27T04:26:07.292Z,29.36
2019-06-27T04:27:07.271Z,29.35
2019-06-27T04:28:07.274Z,29.35
2019-06-27T04:29:07.255Z,29.36
2019-06-27T04:30:07.260Z,29.39
2019-06-27T04:31:07.239Z,29.41
2019-06-27T04:32:07.239Z,29.35
2019-06-27T04:33:07.213Z,29.39
2019-06-27T04:34:07.200Z,29.41
2019-06-27T04:35:07.192Z,29.33
2019-06-27T04:36:07.807Z,29.33
2019-06-27T04:37:07.175Z,29.36
2019-06-27T04:38:07.164Z,29.36
2019-06-27T04:39:07.140Z,29.36
2019-06-27T04:40:07.132Z,29.47
2019-06-27T04:41:06.127Z,29.44
2019-06-27T04:42:07.135Z,29.48
2019-06-27T04:43:07.109Z,29.48
2019-06-27T04:44:07.102Z,29.45
2019-06-27T04:45:07.090Z,29.51
2019-06-27T04:46:07.096Z,29.63
2019-06-27T04:47:07.064Z,29.62
2019-06-27T04:48:07.060Z,29.64
2019-06-27T04:49:11.504Z,29.64
2019-06-27T04:50:07.046Z,29.70
2019-06-27T04:51:07.016Z,29.71
2019-06-27T04:52:07.035Z,29.74
2019-06-27T04:53:07.020Z,29.74
2019-06-27T04:54:07.006Z,29.82
2019-06-27T04:55:07.006Z,29.82
2019-06-27T04:56:06.987Z,29.81
2019-06-27T04:57:06.967Z,29.82
2019-06-27T04:58:06.952Z,29.89
2019-06-27T04:59:06.941Z,29.92
2019-06-27T05:00:06.921Z,29.94
2019-06-27T05:01:06.930Z,29.94
2019-06-27T05:02:06.913Z,29.76
2019-06-27T05:03:06.908Z,29.82
2019-06-27T05:04:06.893Z,29.78
2019-06-27T05:05:06.933Z,29.82
2019-06-27T05:06:06.858Z,29.78
2019-06-27T05:07:06.880Z,29.78
2019-06-27T05:08:06.883Z,29.74
2019-06-27T05:09:06.826Z,29.62
2019-06-27T05:10:06.821Z,29.54
2019-06-27T05:11:06.852Z,29.47
2019-06-27T05:12:06.798Z,29.35
2019-06-27T05:13:06.821Z,29.30
2019-06-27T05:14:06.798Z,29.17
2019-06-27T05:15:06.821Z,29.15
2019-06-27T05:16:06.757Z,29.07
2019-06-27T05:17:06.745Z,28.95
2019-06-27T05:18:06.761Z,28.95
2019-06-27T05:19:06.753Z,28.91
2019-06-27T05:20:06.719Z,28.87
2019-06-27T05:21:06.713Z,28.82
2019-06-27T05:22:05.707Z,28.79
2019-06-27T05:23:06.734Z,28.74
2019-06-27T05:24:06.696Z,28.73
2019-06-27T05:25:06.665Z,28.76
2019-06-27T05:26:06.658Z,28.77
2019-06-27T05:27:06.695Z,28.76
2019-06-27T05:28:06.633Z,28.76
2019-06-27T05:29:06.659Z,28.74
2019-06-27T05:30:09.991Z,28.77
2019-06-27T05:31:06.641Z,28.79
2019-06-27T05:32:06.585Z,28.77
2019-06-27T05:33:06.618Z,28.80
2019-06-27T05:34:06.701Z,28.67
2019-06-27T05:35:06.599Z,28.60
2019-06-27T05:36:06.553Z,28.61
2019-06-27T05:37:06.542Z,28.55
2019-06-27T05:38:06.539Z,28.45
2019-06-27T05:39:06.534Z,28.48
2019-06-27T05:40:06.505Z,28.38
2019-06-27T05:41:06.511Z,28.38
2019-06-27T05:42:06.484Z,28.27
2019-06-27T05:43:06.486Z,28.23
2019-06-27T05:44:06.484Z,28.24
2019-06-27T05:45:06.453Z,28.25
2019-06-27T05:46:06.507Z,28.28
2019-06-27T05:47:06.425Z,28.25
2019-06-27T05:48:06.448Z,28.28
2019-06-27T05:49:06.411Z,28.23
2019-06-27T05:50:06.425Z,28.14
2019-06-27T05:51:06.395Z,28.09
2019-06-27T05:52:06.377Z,28.09
2019-06-27T05:53:06.382Z,28.01
2019-06-27T05:54:06.387Z,27.99
2019-06-27T05:55:06.408Z,27.96
2019-06-27T05:56:06.358Z,27.93
2019-06-27T05:57:06.335Z,27.95
2019-06-27T05:58:06.339Z,27.91
2019-06-27T05:59:06.435Z,27.90
2019-06-27T06:00:06.343Z,27.83
2019-06-27T06:01:06.302Z,27.83
2019-06-27T06:02:06.294Z,27.76
2019-06-27T06:03:06.287Z,27.69
2019-06-27T06:04:06.253Z,27.69
2019-06-27T06:05:06.282Z,27.66
2019-06-27T06:06:06.263Z,27.68
2019-06-27T06:07:06.232Z,27.62
2019-06-27T06:08:06.230Z,27.58
2019-06-27T06:09:06.196Z,27.46
2019-06-27T06:10:06.217Z,27.46
2019-06-27T06:11:06.233Z,27.40
2019-06-27T06:12:06.176Z,27.35
2019-06-27T06:13:06.194Z,27.35
2019-06-27T06:14:06.362Z,27.40
2019-06-27T06:15:06.148Z,27.27
2019-06-27T06:16:06.147Z,27.33
2019-06-27T06:17:06.332Z,27.31
2019-06-27T06:18:06.153Z,27.25
2019-06-27T06:19:06.115Z,27.27
2019-06-27T06:20:06.095Z,27.23
2019-06-27T06:21:06.071Z,27.18
2019-06-27T06:22:06.064Z,27.20
2019-06-27T06:23:06.090Z,27.15
2019-06-27T06:24:06.114Z,27.24
2019-06-27T06:25:06.043Z,27.23
2019-06-27T06:26:06.054Z,27.08
2019-06-27T06:27:06.488Z,27.12
2019-06-27T06:28:06.086Z,27.15
2019-06-27T06:29:06.002Z,27.13
2019-06-27T06:30:05.991Z,27.08
2019-06-27T06:31:05.999Z,27.13
2019-06-27T06:32:05.958Z,27.15
2019-06-27T06:33:05.989Z,27.16
2019-06-27T06:34:05.952Z,27.12
2019-06-27T06:35:05.935Z,27.12
2019-06-27T06:36:05.914Z,27.16
2019-06-27T06:37:08.164Z,27.09
2019-06-27T06:38:05.901Z,27.09
2019-06-27T06:39:05.897Z,27.18
2019-06-27T06:40:05.874Z,27.12
2019-06-27T06:41:07.367Z,27.13
2019-06-27T06:42:05.853Z,27.15
2019-06-27T06:43:05.849Z,27.12
2019-06-27T06:44:05.862Z,27.12
2019-06-27T06:45:05.816Z,27.12
2019-06-27T06:46:05.838Z,27.12
2019-06-27T06:47:05.810Z,27.11
2019-06-27T06:48:05.793Z,27.13
2019-06-27T06:49:05.788Z,27.11
2019-06-27T06:50:05.779Z,27.15
2019-06-27T06:51:05.757Z,27.06
2019-06-27T06:52:05.786Z,27.05
2019-06-27T06:53:05.759Z,27.02
2019-06-27T06:54:05.769Z,27.03
2019-06-27T06:55:05.733Z,27.11
2019-06-27T06:56:05.711Z,27.03
2019-06-27T06:57:05.689Z,26.97
2019-06-27T06:58:05.702Z,26.98
2019-06-27T06:59:05.722Z,27.06
2019-06-27T07:00:05.686Z,26.96
2019-06-27T07:01:05.658Z,26.93
2019-06-27T07:02:05.692Z,26.94
2019-06-27T07:03:05.827Z,26.86
2019-06-27T07:04:05.620Z,26.78
2019-06-27T07:05:05.631Z,26.87
2019-06-27T07:06:05.599Z,26.86
2019-06-27T07:07:05.598Z,26.86
2019-06-27T07:08:05.580Z,26.75
2019-06-27T07:09:05.618Z,26.81
2019-06-27T07:10:05.577Z,26.76
2019-06-27T07:11:05.552Z,26.78
2019-06-27T07:12:05.594Z,26.78
2019-06-27T07:13:05.540Z,26.76
2019-06-27T07:14:05.533Z,26.76
2019-06-27T07:15:05.508Z,26.69
2019-06-27T07:16:05.502Z,26.75
2019-06-27T07:17:05.497Z,26.61
2019-06-27T07:18:05.494Z,26.60
2019-06-27T07:19:05.467Z,26.59
2019-06-27T07:20:05.462Z,26.60
2019-06-27T07:21:05.662Z,26.51
2019-06-27T07:22:05.434Z,26.57
2019-06-27T07:23:05.424Z,26.44
2019-06-27T07:24:05.478Z,26.60
2019-06-27T07:25:05.406Z,26.56
2019-06-27T07:26:05.380Z,26.65
2019-06-27T07:27:05.385Z,26.51
2019-06-27T07:28:05.391Z,26.68
2019-06-27T07:29:05.360Z,26.54
2019-06-27T07:30:08.371Z,26.59
2019-06-27T07:31:17.494Z,26.59
2019-06-27T07:32:05.319Z,26.57
2019-06-27T07:33:05.302Z,26.64
2019-06-27T07:34:05.318Z,26.64
2019-06-27T07:35:05.311Z,26.54
2019-06-27T07:36:05.310Z,26.60
2019-06-27T07:37:05.324Z,26.59
2019-06-27T07:38:05.260Z,26.68
2019-06-27T07:39:06.270Z,26.64
2019-06-27T07:40:05.251Z,26.73
2019-06-27T07:41:05.224Z,26.76
2019-06-27T07:42:05.616Z,26.78
2019-06-27T07:43:06.203Z,26.79
2019-06-27T07:44:05.229Z,26.81
2019-06-27T07:45:05.185Z,26.75
2019-06-27T07:46:05.380Z,26.94
2019-06-27T07:47:05.173Z,26.86
2019-06-27T07:48:05.144Z,26.93
2019-06-27T07:49:06.170Z,27.01
2019-06-27T07:50:05.126Z,26.98
2019-06-27T07:51:05.134Z,27.05
2019-06-27T07:52:05.140Z,27.06
2019-06-27T07:53:05.144Z,27.15
2019-06-27T07:54:05.102Z,27.12
2019-06-27T07:55:05.092Z,27.12
2019-06-27T07:56:05.087Z,27.13
2019-06-27T07:57:05.069Z,27.12
2019-06-27T07:58:05.126Z,27.13
2019-06-27T07:59:05.053Z,27.13
2019-06-27T08:00:05.129Z,27.12
2019-06-27T08:01:05.035Z,27.02
2019-06-27T08:02:05.020Z,27.06
2019-06-27T08:03:04.989Z,27.03
2019-06-27T08:04:04.997Z,27.02
2019-06-27T08:05:04.986Z,27.08
2019-06-27T08:06:03.972Z,26.97
2019-06-27T08:07:04.959Z,27.02
2019-06-27T08:08:04.940Z,27.01
2019-06-27T08:09:04.944Z,27.05
2019-06-27T08:10:04.928Z,27.02
2019-06-27T08:11:04.906Z,27.03
2019-06-27T08:12:04.895Z,27.02
2019-06-27T08:13:04.909Z,27.12
2019-06-27T08:14:04.891Z,27.13
2019-06-27T08:15:04.884Z,27.12
2019-06-27T08:16:04.856Z,27.11
2019-06-27T08:17:04.840Z,27.15
2019-06-27T08:18:04.845Z,27.08
2019-06-27T08:19:04.855Z,27.12
2019-06-27T08:20:04.800Z,27.24
2019-06-27T08:21:04.818Z,27.15
2019-06-27T08:22:04.784Z,27.20
2019-06-27T08:23:04.778Z,27.24
2019-06-27T08:24:04.782Z,27.21
2019-06-27T08:25:04.777Z,27.28
2019-06-27T08:26:04.782Z,27.30
2019-06-27T08:27:04.733Z,27.28
2019-06-27T08:28:04.732Z,27.34
2019-06-27T08:29:04.719Z,27.33
2019-06-27T08:30:08.111Z,27.34
2019-06-27T08:31:04.726Z,27.40
2019-06-27T08:32:04.780Z,27.35
2019-06-27T08:33:04.670Z,27.35
2019-06-27T08:34:04.664Z,27.42
2019-06-27T08:35:04.668Z,27.40
2019-06-27T08:36:04.647Z,27.39
2019-06-27T08:37:05.659Z,27.34
2019-06-27T08:38:04.637Z,27.38
2019-06-27T08:39:04.632Z,27.35
2019-06-27T08:40:04.625Z,27.34
2019-06-27T08:41:04.605Z,27.31
2019-06-27T08:42:04.616Z,27.34
2019-06-27T08:43:04.585Z,27.34
2019-06-27T08:44:04.554Z,27.28
2019-06-27T08:45:04.566Z,27.30
2019-06-27T08:46:04.536Z,27.31
2019-06-27T08:47:04.539Z,27.31
2019-06-27T08:48:04.522Z,27.38
2019-06-27T08:49:04.495Z,27.31
2019-06-27T08:50:04.503Z,27.42
2019-06-27T08:51:04.481Z,27.42
2019-06-27T08:52:04.466Z,27.40
2019-06-27T08:53:04.475Z,27.45
2019-06-27T08:54:04.468Z,27.39
2019-06-27T08:55:04.523Z,27.42
2019-06-27T08:56:05.441Z,27.38
2019-06-27T08:57:04.418Z,27.42
2019-06-27T08:58:04.406Z,27.42
2019-06-27T08:59:04.415Z,27.50
2019-06-27T09:00:04.669Z,27.45
2019-06-27T09:01:04.379Z,27.38
2019-06-27T09:02:09.066Z,27.34
2019-06-27T09:03:04.354Z,27.31
2019-06-27T09:04:04.356Z,27.34
2019-06-27T09:05:04.340Z,27.34
2019-06-27T09:06:04.338Z,27.28
2019-06-27T09:07:04.311Z,27.30
2019-06-27T09:08:04.300Z,27.27
2019-06-27T09:09:04.291Z,27.30
2019-06-27T09:10:04.289Z,27.30
2019-06-27T09:11:04.285Z,27.28
2019-06-27T09:12:04.266Z,27.33
2019-06-27T09:13:04.263Z,27.31
2019-06-27T09:14:04.232Z,27.43
2019-06-27T09:15:03.236Z,27.34
2019-06-27T09:16:04.231Z,27.34
2019-06-27T09:17:04.202Z,27.42
2019-06-27T09:18:04.198Z,27.45
2019-06-27T09:19:04.574Z,27.38
2019-06-27T09:20:04.217Z,27.48
2019-06-27T09:21:04.166Z,27.58
2019-06-27T09:22:04.204Z,27.59
2019-06-27T09:23:04.134Z,27.58
2019-06-27T09:24:04.160Z,27.65
2019-06-27T09:25:04.125Z,27.59
2019-06-27T09:26:04.123Z,27.61
2019-06-27T09:27:04.101Z,27.68
2019-06-27T09:28:07.142Z,27.65
2019-06-27T09:29:04.075Z,27.68
2019-06-27T09:30:04.073Z,27.62
2019-06-27T09:31:04.106Z,27.68
2019-06-27T09:32:04.064Z,27.77
2019-06-27T09:33:04.058Z,27.63
2019-06-27T09:34:04.023Z,27.68
2019-06-27T09:35:04.887Z,27.72
2019-06-27T09:36:04.035Z,27.71
2019-06-27T09:37:04.006Z,27.72
2019-06-27T09:38:03.977Z,27.71
2019-06-27T09:39:03.969Z,27.80
2019-06-27T09:40:03.964Z,27.80
2019-06-27T09:41:03.967Z,27.77
2019-06-27T09:42:03.960Z,27.83
2019-06-27T09:43:03.964Z,27.76
2019-06-27T09:44:03.913Z,27.78
2019-06-27T09:45:03.912Z,27.77
2019-06-27T09:46:03.905Z,27.90
2019-06-27T09:47:03.882Z,27.76
2019-06-27T09:48:03.983Z,27.90
2019-06-27T09:49:06.882Z,27.84
2019-06-27T09:50:03.851Z,27.90
2019-06-27T09:51:03.839Z,27.90
2019-06-27T09:52:03.874Z,27.88
2019-06-27T09:53:03.835Z,27.90
2019-06-27T09:54:03.821Z,27.91
2019-06-27T09:55:03.804Z,27.88
2019-06-27T09:56:03.789Z,27.95
2019-06-27T09:57:03.794Z,27.93
2019-06-27T09:58:03.764Z,27.87
2019-06-27T09:59:03.779Z,27.86
2019-06-27T10:00:03.772Z,27.88
2019-06-27T10:01:06.139Z,27.88
2019-06-27T10:02:03.746Z,27.76
2019-06-27T10:03:03.739Z,27.86
2019-06-27T10:04:03.712Z,27.86
2019-06-27T10:05:03.739Z,27.77
2019-06-27T10:06:03.734Z,27.80
2019-06-27T10:07:03.677Z,27.80
2019-06-27T10:08:04.692Z,27.78
2019-06-27T10:09:03.652Z,27.87
2019-06-27T10:10:03.648Z,27.78
2019-06-27T10:11:03.764Z,27.78
2019-06-27T10:12:03.642Z,27.76
2019-06-27T10:13:03.633Z,27.78
2019-06-27T10:14:03.604Z,27.83
2019-06-27T10:15:03.608Z,27.91
2019-06-27T10:16:03.601Z,27.93
2019-06-27T10:17:03.596Z,27.95
2019-06-27T10:18:03.690Z,27.93
2019-06-27T10:19:03.565Z,27.95
2019-06-27T10:20:03.555Z,27.96
2019-06-27T10:21:03.535Z,27.99
2019-06-27T10:22:03.539Z,28.09
2019-06-27T10:23:03.506Z,28.08
2019-06-27T10:24:03.546Z,28.08
2019-06-27T10:25:03.682Z,28.09
2019-06-27T10:26:03.514Z,28.08
2019-06-27T10:27:03.873Z,28.14
2019-06-27T10:28:03.473Z,28.13
2019-06-27T10:29:03.448Z,28.15
2019-06-27T10:30:03.521Z,28.13
2019-06-27T10:31:03.432Z,28.17
2019-06-27T10:32:03.431Z,28.18
2019-06-27T10:33:03.410Z,28.18
2019-06-27T10:34:03.399Z,28.20
2019-06-27T10:35:03.411Z,28.13
2019-06-27T10:36:03.375Z,28.17
2019-06-27T10:37:03.392Z,28.18
2019-06-27T10:38:03.400Z,28.24
2019-06-27T10:39:03.336Z,28.28
2019-06-27T10:40:03.332Z,28.23
2019-06-27T10:41:03.315Z,28.21
2019-06-27T10:42:03.340Z,28.23
2019-06-27T10:43:02.501Z,28.17
2019-06-27T10:44:03.452Z,28.24
2019-06-27T10:45:03.265Z,28.21
2019-06-27T10:46:03.290Z,28.20
2019-06-27T10:47:03.511Z,28.18
2019-06-27T10:48:03.262Z,28.23
2019-06-27T10:49:03.227Z,28.27
2019-06-27T10:50:03.224Z,28.24
2019-06-27T10:51:04.226Z,28.18
2019-06-27T10:52:03.207Z,28.20
2019-06-27T10:53:03.188Z,28.25
2019-06-27T10:54:03.175Z,28.24
2019-06-27T10:55:03.177Z,28.30
2019-06-27T10:56:03.162Z,28.28
2019-06-27T10:57:03.160Z,28.24
2019-06-27T10:58:03.154Z,28.21
2019-06-27T10:59:03.129Z,28.24
2019-06-27T11:00:03.105Z,28.40
2019-06-27T11:01:03.122Z,28.27
2019-06-27T11:02:03.102Z,28.36
2019-06-27T11:03:14.791Z,28.38
2019-06-27T11:04:03.070Z,28.33
2019-06-27T11:05:09.338Z,28.42
2019-06-27T11:06:03.037Z,28.42
2019-06-27T11:07:03.056Z,28.38
2019-06-27T11:08:03.028Z,28.42
2019-06-27T11:09:03.030Z,28.45
2019-06-27T11:10:03.017Z,28.36
2019-06-27T11:11:02.988Z,28.42
2019-06-27T11:12:02.189Z,28.43
2019-06-27T11:13:02.999Z,28.45
2019-06-27T11:14:02.986Z,28.45
2019-06-27T11:15:02.978Z,28.48
2019-06-27T11:16:03.261Z,28.45
2019-06-27T11:17:02.931Z,28.45
2019-06-27T11:18:02.963Z,28.45
2019-06-27T11:19:02.917Z,28.45
2019-06-27T11:20:02.908Z,28.45
2019-06-27T11:21:02.916Z,28.51
2019-06-27T11:22:02.872Z,28.50
2019-06-27T11:23:02.888Z,28.45
2019-06-27T11:24:02.864Z,28.46
2019-06-27T11:25:02.856Z,28.51
2019-06-27T11:26:02.857Z,28.48
2019-06-27T11:27:02.870Z,28.51
2019-06-27T11:28:02.866Z,28.50
2019-06-27T11:29:02.831Z,28.55
2019-06-27T11:30:02.799Z,28.57
2019-06-27T11:31:02.802Z,28.57
2019-06-27T11:32:02.871Z,28.50
2019-06-27T11:33:02.786Z,28.57
2019-06-27T11:34:02.822Z,28.60
2019-06-27T11:35:02.736Z,28.60
2019-06-27T11:36:02.740Z,28.51
2019-06-27T11:37:02.736Z,28.52
2019-06-27T11:38:02.710Z,28.55
2019-06-27T11:39:02.748Z,28.57
2019-06-27T11:40:02.704Z,28.61
2019-06-27T11:41:02.711Z,28.60
2019-06-27T11:42:02.674Z,28.61
2019-06-27T11:43:02.728Z,28.58
2019-06-27T11:44:02.690Z,28.62
2019-06-27T11:45:02.649Z,28.58
2019-06-27T11:46:03.956Z,28.60
2019-06-27T11:47:02.950Z,28.65
2019-06-27T11:48:02.863Z,28.67
2019-06-27T11:49:02.984Z,28.61
2019-06-27T11:50:02.620Z,28.64
2019-06-27T11:51:02.565Z,28.72
2019-06-27T11:52:02.574Z,28.61
2019-06-27T11:53:02.561Z,28.65
2019-06-27T11:54:02.826Z,28.65
2019-06-27T11:55:02.536Z,28.73
2019-06-27T11:56:02.537Z,28.73
2019-06-27T11:57:02.525Z,28.77
2019-06-27T11:58:02.529Z,28.77
2019-06-27T11:59:02.693Z,28.76
2019-06-27T12:00:02.474Z,28.80
2019-06-27T12:01:02.457Z,28.79
2019-06-27T12:02:02.462Z,28.80
2019-06-27T12:03:02.457Z,28.83
2019-06-27T12:04:02.546Z,28.82
2019-06-27T12:05:02.429Z,28.82
2019-06-27T12:06:02.417Z,28.79
2019-06-27T12:07:02.412Z,28.80
2019-06-27T12:08:01.396Z,28.79
2019-06-27T12:09:02.429Z,28.74
2019-06-27T12:10:02.374Z,28.76
2019-06-27T12:11:02.384Z,28.88
2019-06-27T12:12:02.434Z,28.83
2019-06-27T12:13:02.381Z,28.92
2019-06-27T12:14:02.345Z,28.79
2019-06-27T12:15:02.325Z,28.80
2019-06-27T12:16:03.699Z,28.80
2019-06-27T12:17:02.527Z,28.83
2019-06-27T12:18:02.372Z,28.94
2019-06-27T12:19:02.311Z,28.92
2019-06-27T12:20:02.299Z,28.89
2019-06-27T12:21:05.673Z,28.88
2019-06-27T12:22:02.248Z,29.02
2019-06-27T12:23:02.466Z,28.95
2019-06-27T12:24:02.247Z,28.94
2019-06-27T12:25:02.241Z,28.89
2019-06-27T12:26:02.209Z,29.03
2019-06-27T12:27:02.192Z,29.03
2019-06-27T12:28:02.214Z,29.03
2019-06-27T12:29:01.171Z,28.97
2019-06-27T12:30:03.246Z,29.08
2019-06-27T12:31:10.349Z,29.03
2019-06-27T12:32:02.140Z,29.00
2019-06-27T12:33:02.163Z,29.14
2019-06-27T12:34:06.936Z,29.02
2019-06-27T12:35:02.114Z,29.11
2019-06-27T12:36:02.128Z,29.11
2019-06-27T12:37:02.099Z,29.10
2019-06-27T12:38:02.065Z,29.12
2019-06-27T12:39:02.068Z,29.11
2019-06-27T12:40:02.176Z,29.12
2019-06-27T12:41:02.034Z,29.14
2019-06-27T12:42:02.038Z,29.14
2019-06-27T12:43:02.018Z,29.15
2019-06-27T12:44:02.003Z,29.15
2019-06-27T12:45:02.019Z,29.26
2019-06-27T12:46:02.001Z,29.27
2019-06-27T12:47:02.057Z,29.14
2019-06-27T12:48:06.962Z,29.23
2019-06-27T12:49:01.961Z,29.21
2019-06-27T12:50:03.115Z,29.25
2019-06-27T12:51:01.939Z,29.25
2019-06-27T12:52:01.926Z,29.27